sensor_id;sensor_type;location;lat;lon;timestamp;P1;durP1;ratioP1;P2;durP2;ratioP2
12088;SDS011;6107;49.078;8.578;2022-11-20T00:00:47;20.40;;;11.50;;
12088;SDS011;6107;49.078;8.578;2022-11-20T00:03:13;24.83;;;12.63;;
12088;SDS011;6107;49.078;8.578;2022-11-20T00:05:39;25.97;;;12.20;;
12088;SDS011;6107;49.078;8.578;2022-11-20T00:08:05;19.63;;;10.63;;
12088;SDS011;6107;49.078;8.578;2022-11-20T00:10:31;19.97;;;10.83;;
12088;SDS011;6107;49.078;8.578;2022-11-20T00:12:59;20.27;;;11.87;;
12088;SDS011;6107;49.078;8.578;2022-11-20T00:15:25;23.03;;;11.83;;
12088;SDS011;6107;49.078;8.578;2022-11-20T00:17:50;20.43;;;11.73;;
12088;SDS011;6107;49.078;8.578;2022-11-20T00:20:16;21.67;;;11.20;;
12088;SDS011;6107;49.078;8.578;2022-11-20T00:22:42;25.53;;;11.47;;
12088;SDS011;6107;49.078;8.578;2022-11-20T00:25:07;22.03;;;11.43;;
12088;SDS011;6107;49.078;8.578;2022-11-20T00:27:33;19.27;;;10.90;;
12088;SDS011;6107;49.078;8.578;2022-11-20T00:29:59;21.30;;;11.47;;
12088;SDS011;6107;49.078;8.578;2022-11-20T00:32:24;23.87;;;11.97;;
12088;SDS011;6107;49.078;8.578;2022-11-20T00:34:50;25.73;;;12.70;;
12088;SDS011;6107;49.078;8.578;2022-11-20T00:37:15;25.03;;;13.43;;
12088;SDS011;6107;49.078;8.578;2022-11-20T00:39:41;26.63;;;12.37;;
12088;SDS011;6107;49.078;8.578;2022-11-20T00:42:06;25.30;;;13.17;;
12088;SDS011;6107;49.078;8.578;2022-11-20T00:44:32;23.33;;;12.40;;
12088;SDS011;6107;49.078;8.578;2022-11-20T00:46:57;23.97;;;12.87;;
12088;SDS011;6107;49.078;8.578;2022-11-20T00:49:23;24.23;;;12.77;;
12088;SDS011;6107;49.078;8.578;2022-11-20T00:51:48;26.00;;;12.70;;
12088;SDS011;6107;49.078;8.578;2022-11-20T00:54:14;22.90;;;12.30;;
12088;SDS011;6107;49.078;8.578;2022-11-20T00:56:39;26.57;;;13.30;;
12088;SDS011;6107;49.078;8.578;2022-11-20T00:59:05;26.90;;;13.10;;
12088;SDS011;6107;49.078;8.578;2022-11-20T01:01:31;28.10;;;12.70;;
12088;SDS011;6107;49.078;8.578;2022-11-20T01:03:57;25.23;;;12.80;;
12088;SDS011;6107;49.078;8.578;2022-11-20T01:06:25;20.90;;;11.50;;
12088;SDS011;6107;49.078;8.578;2022-11-20T01:08:53;20.47;;;11.77;;
12088;SDS011;6107;49.078;8.578;2022-11-20T01:11:27;23.00;;;12.10;;
12088;SDS011;6107;49.078;8.578;2022-11-20T01:13:55;26.23;;;11.73;;
12088;SDS011;6107;49.078;8.578;2022-11-20T01:16:25;20.10;;;11.43;;
12088;SDS011;6107;49.078;8.578;2022-11-20T01:18:56;24.23;;;11.70;;
12088;SDS011;6107;49.078;8.578;2022-11-20T01:21:24;21.20;;;11.40;;
12088;SDS011;6107;49.078;8.578;2022-11-20T01:23:51;20.27;;;12.03;;
12088;SDS011;6107;49.078;8.578;2022-11-20T01:26:18;21.80;;;11.60;;
12088;SDS011;6107;49.078;8.578;2022-11-20T01:28:45;19.97;;;10.80;;
12088;SDS011;6107;49.078;8.578;2022-11-20T01:31:19;20.30;;;11.47;;
12088;SDS011;6107;49.078;8.578;2022-11-20T01:33:50;22.97;;;11.97;;
12088;SDS011;6107;49.078;8.578;2022-11-20T01:36:18;20.60;;;11.47;;
12088;SDS011;6107;49.078;8.578;2022-11-20T01:38:44;19.87;;;10.57;;
12088;SDS011;6107;49.078;8.578;2022-11-20T01:41:11;19.80;;;11.27;;
12088;SDS011;6107;49.078;8.578;2022-11-20T01:44:01;19.53;;;11.27;;
12088;SDS011;6107;49.078;8.578;2022-11-20T01:46:32;18.07;;;11.37;;
12088;SDS011;6107;49.078;8.578;2022-11-20T01:49:02;17.10;;;10.30;;
12088;SDS011;6107;49.078;8.578;2022-11-20T01:54:21;17.23;;;9.33;;
12088;SDS011;6107;49.078;8.578;2022-11-20T01:57:15;18.17;;;9.80;;
12088;SDS011;6107;49.078;8.578;2022-11-20T01:59:44;18.10;;;9.87;;
12088;SDS011;6107;49.078;8.578;2022-11-20T02:02:17;17.33;;;10.20;;
12088;SDS011;6107;49.078;8.578;2022-11-20T02:04:44;17.83;;;9.40;;
12088;SDS011;6107;49.078;8.578;2022-11-20T02:07:10;15.03;;;9.10;;
12088;SDS011;6107;49.078;8.578;2022-11-20T02:09:36;14.97;;;9.70;;
12088;SDS011;6107;49.078;8.578;2022-11-20T02:12:02;15.87;;;9.80;;
12088;SDS011;6107;49.078;8.578;2022-11-20T02:14:28;15.27;;;9.37;;
12088;SDS011;6107;49.078;8.578;2022-11-20T02:16:54;13.70;;;9.20;;
12088;SDS011;6107;49.078;8.578;2022-11-20T02:21:56;16.00;;;9.37;;
12088;SDS011;6107;49.078;8.578;2022-11-20T02:24:30;14.67;;;8.27;;
12088;SDS011;6107;49.078;8.578;2022-11-20T02:27:00;13.60;;;9.00;;
12088;SDS011;6107;49.078;8.578;2022-11-20T02:29:32;14.80;;;8.73;;
12088;SDS011;6107;49.078;8.578;2022-11-20T02:32:02;19.20;;;9.17;;
12088;SDS011;6107;49.078;8.578;2022-11-20T02:34:28;13.03;;;8.37;;
12088;SDS011;6107;49.078;8.578;2022-11-20T02:36:54;16.07;;;8.80;;
12088;SDS011;6107;49.078;8.578;2022-11-20T02:39:21;12.47;;;7.87;;
12088;SDS011;6107;49.078;8.578;2022-11-20T02:41:49;13.83;;;8.50;;
12088;SDS011;6107;49.078;8.578;2022-11-20T02:44:18;12.93;;;8.83;;
12088;SDS011;6107;49.078;8.578;2022-11-20T02:46:44;15.83;;;7.97;;
12088;SDS011;6107;49.078;8.578;2022-11-20T02:49:10;12.57;;;8.13;;
12088;SDS011;6107;49.078;8.578;2022-11-20T02:51:36;12.70;;;8.40;;
12088;SDS011;6107;49.078;8.578;2022-11-20T02:54:01;12.80;;;7.73;;
12088;SDS011;6107;49.078;8.578;2022-11-20T02:56:27;15.37;;;8.03;;
12088;SDS011;6107;49.078;8.578;2022-11-20T02:58:55;15.33;;;8.57;;
12088;SDS011;6107;49.078;8.578;2022-11-20T03:01:21;13.83;;;8.17;;
12088;SDS011;6107;49.078;8.578;2022-11-20T03:03:46;14.67;;;8.83;;
12088;SDS011;6107;49.078;8.578;2022-11-20T03:06:13;14.97;;;8.60;;
12088;SDS011;6107;49.078;8.578;2022-11-20T03:08:40;14.33;;;8.47;;
12088;SDS011;6107;49.078;8.578;2022-11-20T03:11:06;14.37;;;7.83;;
12088;SDS011;6107;49.078;8.578;2022-11-20T03:13:33;12.83;;;8.17;;
12088;SDS011;6107;49.078;8.578;2022-11-20T03:16:04;11.63;;;7.50;;
12088;SDS011;6107;49.078;8.578;2022-11-20T03:18:32;12.97;;;7.73;;
12088;SDS011;6107;49.078;8.578;2022-11-20T03:20:58;12.80;;;7.83;;
12088;SDS011;6107;49.078;8.578;2022-11-20T03:23:24;11.57;;;7.37;;
12088;SDS011;6107;49.078;8.578;2022-11-20T03:25:50;13.50;;;7.87;;
12088;SDS011;6107;49.078;8.578;2022-11-20T03:28:16;11.77;;;7.87;;
12088;SDS011;6107;49.078;8.578;2022-11-20T03:30:41;11.07;;;6.83;;
12088;SDS011;6107;49.078;8.578;2022-11-20T03:33:07;14.93;;;7.03;;
12088;SDS011;6107;49.078;8.578;2022-11-20T03:35:32;11.80;;;7.53;;
12088;SDS011;6107;49.078;8.578;2022-11-20T03:37:58;9.83;;;6.73;;
12088;SDS011;6107;49.078;8.578;2022-11-20T03:40:23;8.50;;;6.07;;
12088;SDS011;6107;49.078;8.578;2022-11-20T03:42:49;11.53;;;6.27;;
12088;SDS011;6107;49.078;8.578;2022-11-20T03:45:15;10.00;;;6.70;;
12088;SDS011;6107;49.078;8.578;2022-11-20T03:47:42;10.67;;;5.73;;
12088;SDS011;6107;49.078;8.578;2022-11-20T03:50:09;10.27;;;6.27;;
12088;SDS011;6107;49.078;8.578;2022-11-20T03:52:35;10.20;;;6.07;;
12088;SDS011;6107;49.078;8.578;2022-11-20T03:55:01;10.73;;;6.40;;
12088;SDS011;6107;49.078;8.578;2022-11-20T03:57:26;9.40;;;6.10;;
12088;SDS011;6107;49.078;8.578;2022-11-20T03:59:52;9.00;;;5.60;;
12088;SDS011;6107;49.078;8.578;2022-11-20T04:02:18;10.37;;;6.17;;
12088;SDS011;6107;49.078;8.578;2022-11-20T04:04:43;7.53;;;5.50;;
12088;SDS011;6107;49.078;8.578;2022-11-20T04:07:09;9.27;;;6.23;;
12088;SDS011;6107;49.078;8.578;2022-11-20T04:09:34;8.43;;;5.63;;
12088;SDS011;6107;49.078;8.578;2022-11-20T04:12:00;7.77;;;5.47;;
12088;SDS011;6107;49.078;8.578;2022-11-20T04:14:25;9.33;;;5.30;;
12088;SDS011;6107;49.078;8.578;2022-11-20T04:16:51;9.03;;;5.20;;
12088;SDS011;6107;49.078;8.578;2022-11-20T04:19:16;7.43;;;5.30;;
12088;SDS011;6107;49.078;8.578;2022-11-20T04:21:43;10.03;;;5.60;;
12088;SDS011;6107;49.078;8.578;2022-11-20T04:24:09;7.73;;;5.47;;
12088;SDS011;6107;49.078;8.578;2022-11-20T04:26:37;9.00;;;5.40;;
12088;SDS011;6107;49.078;8.578;2022-11-20T04:29:06;8.73;;;5.47;;
12088;SDS011;6107;49.078;8.578;2022-11-20T04:31:32;7.87;;;5.07;;
12088;SDS011;6107;49.078;8.578;2022-11-20T04:34:00;7.97;;;5.57;;
12088;SDS011;6107;49.078;8.578;2022-11-20T04:36:27;6.63;;;4.83;;
12088;SDS011;6107;49.078;8.578;2022-11-20T04:38:53;8.50;;;5.00;;
12088;SDS011;6107;49.078;8.578;2022-11-20T04:41:23;7.30;;;4.87;;
12088;SDS011;6107;49.078;8.578;2022-11-20T04:43:51;7.93;;;4.83;;
12088;SDS011;6107;49.078;8.578;2022-11-20T04:46:18;7.13;;;4.70;;
12088;SDS011;6107;49.078;8.578;2022-11-20T04:48:45;9.60;;;5.17;;
12088;SDS011;6107;49.078;8.578;2022-11-20T04:51:12;7.63;;;4.90;;
12088;SDS011;6107;49.078;8.578;2022-11-20T04:53:37;7.33;;;4.60;;
12088;SDS011;6107;49.078;8.578;2022-11-20T04:56:04;8.13;;;5.20;;
12088;SDS011;6107;49.078;8.578;2022-11-20T04:58:32;8.83;;;5.70;;
12088;SDS011;6107;49.078;8.578;2022-11-20T05:01:04;7.70;;;5.00;;
12088;SDS011;6107;49.078;8.578;2022-11-20T05:03:32;9.77;;;4.80;;
12088;SDS011;6107;49.078;8.578;2022-11-20T05:06:01;7.97;;;4.87;;
12088;SDS011;6107;49.078;8.578;2022-11-20T05:08:28;8.60;;;4.63;;
12088;SDS011;6107;49.078;8.578;2022-11-20T05:10:58;6.70;;;4.80;;
12088;SDS011;6107;49.078;8.578;2022-11-20T05:13:31;8.00;;;4.97;;
12088;SDS011;6107;49.078;8.578;2022-11-20T05:16:01;8.03;;;5.53;;
12088;SDS011;6107;49.078;8.578;2022-11-20T05:18:28;8.47;;;4.67;;
12088;SDS011;6107;49.078;8.578;2022-11-20T05:20:54;7.67;;;4.90;;
12088;SDS011;6107;49.078;8.578;2022-11-20T05:23:21;9.63;;;4.63;;
12088;SDS011;6107;49.078;8.578;2022-11-20T05:25:46;7.63;;;5.30;;
12088;SDS011;6107;49.078;8.578;2022-11-20T05:28:12;6.67;;;4.60;;
12088;SDS011;6107;49.078;8.578;2022-11-20T05:30:37;8.03;;;4.83;;
12088;SDS011;6107;49.078;8.578;2022-11-20T05:33:03;6.87;;;4.87;;
12088;SDS011;6107;49.078;8.578;2022-11-20T05:35:28;5.50;;;4.67;;
12088;SDS011;6107;49.078;8.578;2022-11-20T05:37:54;10.27;;;4.40;;
12088;SDS011;6107;49.078;8.578;2022-11-20T05:40:19;7.83;;;4.70;;
12088;SDS011;6107;49.078;8.578;2022-11-20T05:42:45;7.93;;;4.67;;
12088;SDS011;6107;49.078;8.578;2022-11-20T05:45:10;7.27;;;4.23;;
12088;SDS011;6107;49.078;8.578;2022-11-20T05:47:36;7.00;;;4.07;;
12088;SDS011;6107;49.078;8.578;2022-11-20T05:50:02;7.10;;;4.50;;
12088;SDS011;6107;49.078;8.578;2022-11-20T05:52:28;6.37;;;4.37;;
12088;SDS011;6107;49.078;8.578;2022-11-20T05:54:54;6.87;;;4.70;;
12088;SDS011;6107;49.078;8.578;2022-11-20T05:57:20;7.17;;;4.50;;
12088;SDS011;6107;49.078;8.578;2022-11-20T05:59:45;6.87;;;3.87;;
12088;SDS011;6107;49.078;8.578;2022-11-20T06:02:11;5.20;;;3.97;;
12088;SDS011;6107;49.078;8.578;2022-11-20T06:04:36;6.40;;;4.10;;
12088;SDS011;6107;49.078;8.578;2022-11-20T06:07:02;5.93;;;3.93;;
12088;SDS011;6107;49.078;8.578;2022-11-20T06:09:29;7.33;;;3.93;;
12088;SDS011;6107;49.078;8.578;2022-11-20T06:11:54;6.17;;;3.80;;
12088;SDS011;6107;49.078;8.578;2022-11-20T06:14:20;6.87;;;3.77;;
12088;SDS011;6107;49.078;8.578;2022-11-20T06:16:46;5.20;;;3.67;;
12088;SDS011;6107;49.078;8.578;2022-11-20T06:19:11;8.13;;;3.67;;
12088;SDS011;6107;49.078;8.578;2022-11-20T06:21:37;6.87;;;3.80;;
12088;SDS011;6107;49.078;8.578;2022-11-20T06:24:02;5.47;;;3.83;;
12088;SDS011;6107;49.078;8.578;2022-11-20T06:26:28;6.53;;;3.90;;
12088;SDS011;6107;49.078;8.578;2022-11-20T06:28:55;5.60;;;3.43;;
12088;SDS011;6107;49.078;8.578;2022-11-20T06:31:22;6.10;;;4.00;;
12088;SDS011;6107;49.078;8.578;2022-11-20T06:33:49;4.27;;;3.10;;
12088;SDS011;6107;49.078;8.578;2022-11-20T06:36:15;5.53;;;3.80;;
12088;SDS011;6107;49.078;8.578;2022-11-20T06:38:42;6.20;;;3.90;;
12088;SDS011;6107;49.078;8.578;2022-11-20T06:41:12;4.70;;;3.37;;
12088;SDS011;6107;49.078;8.578;2022-11-20T06:43:39;6.17;;;3.30;;
12088;SDS011;6107;49.078;8.578;2022-11-20T06:46:05;5.70;;;3.50;;
12088;SDS011;6107;49.078;8.578;2022-11-20T06:48:31;4.17;;;3.30;;
12088;SDS011;6107;49.078;8.578;2022-11-20T06:50:56;7.20;;;3.57;;
12088;SDS011;6107;49.078;8.578;2022-11-20T06:53:23;6.27;;;3.13;;
12088;SDS011;6107;49.078;8.578;2022-11-20T06:55:49;5.77;;;3.27;;
12088;SDS011;6107;49.078;8.578;2022-11-20T06:58:16;8.33;;;3.60;;
12088;SDS011;6107;49.078;8.578;2022-11-20T07:00:42;5.47;;;3.50;;
12088;SDS011;6107;49.078;8.578;2022-11-20T07:03:09;5.77;;;3.27;;
12088;SDS011;6107;49.078;8.578;2022-11-20T07:05:36;5.17;;;3.23;;
12088;SDS011;6107;49.078;8.578;2022-11-20T07:08:03;4.00;;;3.30;;
12088;SDS011;6107;49.078;8.578;2022-11-20T07:10:29;6.00;;;3.40;;
12088;SDS011;6107;49.078;8.578;2022-11-20T07:12:55;5.10;;;3.33;;
12088;SDS011;6107;49.078;8.578;2022-11-20T07:15:21;5.47;;;3.20;;
12088;SDS011;6107;49.078;8.578;2022-11-20T07:17:48;4.97;;;3.10;;
12088;SDS011;6107;49.078;8.578;2022-11-20T07:20:14;4.20;;;3.37;;
12088;SDS011;6107;49.078;8.578;2022-11-20T07:22:40;4.87;;;3.30;;
12088;SDS011;6107;49.078;8.578;2022-11-20T07:25:06;3.70;;;3.20;;
12088;SDS011;6107;49.078;8.578;2022-11-20T07:27:32;4.17;;;3.20;;
12088;SDS011;6107;49.078;8.578;2022-11-20T07:29:58;5.20;;;2.80;;
12088;SDS011;6107;49.078;8.578;2022-11-20T07:32:23;3.70;;;2.73;;
12088;SDS011;6107;49.078;8.578;2022-11-20T07:34:49;3.93;;;3.00;;
12088;SDS011;6107;49.078;8.578;2022-11-20T07:37:14;5.73;;;2.90;;
12088;SDS011;6107;49.078;8.578;2022-11-20T07:39:41;4.53;;;3.30;;
12088;SDS011;6107;49.078;8.578;2022-11-20T07:42:07;4.67;;;3.23;;
12088;SDS011;6107;49.078;8.578;2022-11-20T07:44:33;5.57;;;3.00;;
12088;SDS011;6107;49.078;8.578;2022-11-20T07:46:58;4.20;;;3.10;;
12088;SDS011;6107;49.078;8.578;2022-11-20T07:49:24;5.20;;;2.93;;
12088;SDS011;6107;49.078;8.578;2022-11-20T07:51:50;4.73;;;2.93;;
12088;SDS011;6107;49.078;8.578;2022-11-20T07:54:18;4.17;;;3.20;;
12088;SDS011;6107;49.078;8.578;2022-11-20T07:56:45;4.43;;;2.93;;
12088;SDS011;6107;49.078;8.578;2022-11-20T07:59:10;7.03;;;3.40;;
12088;SDS011;6107;49.078;8.578;2022-11-20T08:01:37;4.77;;;3.27;;
12088;SDS011;6107;49.078;8.578;2022-11-20T08:04:05;4.50;;;2.83;;
12088;SDS011;6107;49.078;8.578;2022-11-20T08:06:31;7.87;;;3.40;;
12088;SDS011;6107;49.078;8.578;2022-11-20T08:08:57;4.70;;;3.50;;
12088;SDS011;6107;49.078;8.578;2022-11-20T08:11:22;5.33;;;3.50;;
12088;SDS011;6107;49.078;8.578;2022-11-20T08:14:06;6.17;;;3.50;;
12088;SDS011;6107;49.078;8.578;2022-11-20T08:16:38;6.73;;;3.67;;
12088;SDS011;6107;49.078;8.578;2022-11-20T08:19:05;5.57;;;3.63;;
12088;SDS011;6107;49.078;8.578;2022-11-20T08:21:31;5.97;;;3.63;;
12088;SDS011;6107;49.078;8.578;2022-11-20T08:23:57;6.70;;;4.37;;
12088;SDS011;6107;49.078;8.578;2022-11-20T08:26:23;6.73;;;4.30;;
12088;SDS011;6107;49.078;8.578;2022-11-20T08:28:52;6.43;;;3.77;;
12088;SDS011;6107;49.078;8.578;2022-11-20T08:31:19;5.27;;;3.40;;
12088;SDS011;6107;49.078;8.578;2022-11-20T08:33:45;5.70;;;4.07;;
12088;SDS011;6107;49.078;8.578;2022-11-20T08:36:10;6.30;;;4.00;;
12088;SDS011;6107;49.078;8.578;2022-11-20T08:38:36;5.43;;;3.53;;
12088;SDS011;6107;49.078;8.578;2022-11-20T08:41:02;6.93;;;3.83;;
12088;SDS011;6107;49.078;8.578;2022-11-20T08:43:48;5.43;;;3.97;;
12088;SDS011;6107;49.078;8.578;2022-11-20T08:46:13;6.93;;;3.73;;
12088;SDS011;6107;49.078;8.578;2022-11-20T08:48:39;5.90;;;3.80;;
12088;SDS011;6107;49.078;8.578;2022-11-20T08:51:05;6.07;;;4.10;;
12088;SDS011;6107;49.078;8.578;2022-11-20T08:53:30;6.80;;;4.10;;
12088;SDS011;6107;49.078;8.578;2022-11-20T08:55:56;5.30;;;3.77;;
12088;SDS011;6107;49.078;8.578;2022-11-20T08:58:23;9.43;;;4.10;;
12088;SDS011;6107;49.078;8.578;2022-11-20T09:00:48;6.20;;;4.30;;
12088;SDS011;6107;49.078;8.578;2022-11-20T09:03:14;5.67;;;4.07;;
12088;SDS011;6107;49.078;8.578;2022-11-20T09:05:39;7.13;;;4.37;;
12088;SDS011;6107;49.078;8.578;2022-11-20T09:08:05;5.77;;;4.23;;
12088;SDS011;6107;49.078;8.578;2022-11-20T09:10:31;8.43;;;4.67;;
12088;SDS011;6107;49.078;8.578;2022-11-20T09:12:57;6.97;;;4.67;;
12088;SDS011;6107;49.078;8.578;2022-11-20T09:15:23;6.30;;;4.30;;
12088;SDS011;6107;49.078;8.578;2022-11-20T09:17:59;7.47;;;4.47;;
12088;SDS011;6107;49.078;8.578;2022-11-20T09:20:26;7.90;;;4.50;;
12088;SDS011;6107;49.078;8.578;2022-11-20T09:22:53;7.67;;;4.87;;
12088;SDS011;6107;49.078;8.578;2022-11-20T09:25:19;8.80;;;5.33;;
12088;SDS011;6107;49.078;8.578;2022-11-20T09:27:44;5.07;;;3.93;;
12088;SDS011;6107;49.078;8.578;2022-11-20T09:30:11;8.37;;;4.87;;
12088;SDS011;6107;49.078;8.578;2022-11-20T09:32:38;7.10;;;5.07;;
12088;SDS011;6107;49.078;8.578;2022-11-20T09:35:04;6.87;;;5.00;;
12088;SDS011;6107;49.078;8.578;2022-11-20T09:37:30;6.93;;;4.80;;
12088;SDS011;6107;49.078;8.578;2022-11-20T09:39:59;7.10;;;5.00;;
12088;SDS011;6107;49.078;8.578;2022-11-20T09:42:27;7.40;;;5.17;;
12088;SDS011;6107;49.078;8.578;2022-11-20T09:45:08;6.70;;;4.33;;
12088;SDS011;6107;49.078;8.578;2022-11-20T09:50:31;6.60;;;4.33;;
12088;SDS011;6107;49.078;8.578;2022-11-20T09:53:09;8.80;;;6.47;;
12088;SDS011;6107;49.078;8.578;2022-11-20T09:55:51;6.17;;;4.30;;
12088;SDS011;6107;49.078;8.578;2022-11-20T10:00:58;8.27;;;5.27;;
12088;SDS011;6107;49.078;8.578;2022-11-20T10:03:50;7.13;;;4.37;;
12088;SDS011;6107;49.078;8.578;2022-11-20T10:06:27;8.77;;;4.63;;
12088;SDS011;6107;49.078;8.578;2022-11-20T10:08:59;6.90;;;4.90;;
12088;SDS011;6107;49.078;8.578;2022-11-20T10:14:33;7.63;;;4.93;;
12088;SDS011;6107;49.078;8.578;2022-11-20T10:17:13;8.53;;;4.67;;
12088;SDS011;6107;49.078;8.578;2022-11-20T10:20:36;7.33;;;4.70;;
12088;SDS011;6107;49.078;8.578;2022-11-20T10:26:12;8.83;;;5.07;;
12088;SDS011;6107;49.078;8.578;2022-11-20T10:28:15;6.87;;;4.80;;
12088;SDS011;6107;49.078;8.578;2022-11-20T10:31:11;7.37;;;4.77;;
12088;SDS011;6107;49.078;8.578;2022-11-20T10:33:59;7.77;;;5.73;;
12088;SDS011;6107;49.078;8.578;2022-11-20T10:36:30;9.03;;;5.67;;
12088;SDS011;6107;49.078;8.578;2022-11-20T10:39:03;8.80;;;5.80;;
12088;SDS011;6107;49.078;8.578;2022-11-20T10:41:43;7.77;;;5.70;;
12088;SDS011;6107;49.078;8.578;2022-11-20T10:44:26;10.80;;;5.80;;
12088;SDS011;6107;49.078;8.578;2022-11-20T10:47:13;10.33;;;6.33;;
12088;SDS011;6107;49.078;8.578;2022-11-20T10:49:40;8.93;;;6.03;;
12088;SDS011;6107;49.078;8.578;2022-11-20T10:52:13;11.63;;;6.53;;
12088;SDS011;6107;49.078;8.578;2022-11-20T10:55:05;7.97;;;5.10;;
12088;SDS011;6107;49.078;8.578;2022-11-20T10:57:51;8.47;;;5.97;;
12088;SDS011;6107;49.078;8.578;2022-11-20T11:00:30;6.97;;;5.00;;
12088;SDS011;6107;49.078;8.578;2022-11-20T11:02:56;7.87;;;5.07;;
12088;SDS011;6107;49.078;8.578;2022-11-20T11:05:41;6.40;;;4.73;;
12088;SDS011;6107;49.078;8.578;2022-11-20T11:08:14;6.40;;;4.87;;
12088;SDS011;6107;49.078;8.578;2022-11-20T11:13:22;6.20;;;4.20;;
12088;SDS011;6107;49.078;8.578;2022-11-20T11:15:52;7.17;;;4.50;;
12088;SDS011;6107;49.078;8.578;2022-11-20T11:18:25;6.77;;;4.60;;
12088;SDS011;6107;49.078;8.578;2022-11-20T11:20:52;9.10;;;5.00;;
12088;SDS011;6107;49.078;8.578;2022-11-20T11:23:34;6.30;;;4.07;;
12088;SDS011;6107;49.078;8.578;2022-11-20T11:26:02;9.00;;;4.60;;
12088;SDS011;6107;49.078;8.578;2022-11-20T11:28:29;7.07;;;4.10;;
12088;SDS011;6107;49.078;8.578;2022-11-20T11:30:55;6.47;;;4.03;;
12088;SDS011;6107;49.078;8.578;2022-11-20T11:33:21;7.60;;;4.30;;
12088;SDS011;6107;49.078;8.578;2022-11-20T11:35:49;7.07;;;4.43;;
12088;SDS011;6107;49.078;8.578;2022-11-20T11:38:35;5.10;;;4.40;;
12088;SDS011;6107;49.078;8.578;2022-11-20T11:41:06;10.70;;;6.33;;
12088;SDS011;6107;49.078;8.578;2022-11-20T11:43:35;9.17;;;4.77;;
12088;SDS011;6107;49.078;8.578;2022-11-20T11:51:49;8.73;;;5.33;;
12088;SDS011;6107;49.078;8.578;2022-11-20T11:54:55;9.93;;;5.77;;
12088;SDS011;6107;49.078;8.578;2022-11-20T12:00:08;7.03;;;5.03;;
12088;SDS011;6107;49.078;8.578;2022-11-20T12:07:59;6.00;;;3.53;;
12088;SDS011;6107;49.078;8.578;2022-11-20T12:10:35;5.63;;;3.23;;
12088;SDS011;6107;49.078;8.578;2022-11-20T12:13:04;5.10;;;2.53;;
12088;SDS011;6107;49.078;8.578;2022-11-20T12:15:44;4.20;;;2.07;;
12088;SDS011;6107;49.078;8.578;2022-11-20T12:18:17;5.23;;;2.13;;
12088;SDS011;6107;49.078;8.578;2022-11-20T12:20:45;4.30;;;2.17;;
12088;SDS011;6107;49.078;8.578;2022-11-20T12:25:56;5.37;;;2.03;;
12088;SDS011;6107;49.078;8.578;2022-11-20T12:31:36;5.00;;;2.10;;
12088;SDS011;6107;49.078;8.578;2022-11-20T12:34:14;3.83;;;1.73;;
12088;SDS011;6107;49.078;8.578;2022-11-20T12:36:52;3.47;;;1.73;;
12088;SDS011;6107;49.078;8.578;2022-11-20T12:39:33;3.87;;;2.10;;
12088;SDS011;6107;49.078;8.578;2022-11-20T12:42:06;7.87;;;1.90;;
12088;SDS011;6107;49.078;8.578;2022-11-20T12:45:01;5.57;;;2.13;;
12088;SDS011;6107;49.078;8.578;2022-11-20T13:01:48;4.77;;;1.63;;
12088;SDS011;6107;49.078;8.578;2022-11-20T13:06:57;4.10;;;1.70;;
12088;SDS011;6107;49.078;8.578;2022-11-20T13:09:23;2.70;;;1.87;;
12088;SDS011;6107;49.078;8.578;2022-11-20T13:14:43;6.80;;;1.67;;
12088;SDS011;6107;49.078;8.578;2022-11-20T13:17:19;7.30;;;1.47;;
12088;SDS011;6107;49.078;8.578;2022-11-20T13:19:57;6.10;;;1.67;;
12088;SDS011;6107;49.078;8.578;2022-11-20T13:22:26;4.30;;;1.50;;
12088;SDS011;6107;49.078;8.578;2022-11-20T13:25:09;3.47;;;1.20;;
12088;SDS011;6107;49.078;8.578;2022-11-20T13:27:35;5.47;;;1.40;;
12088;SDS011;6107;49.078;8.578;2022-11-20T13:30:14;5.30;;;1.30;;
12088;SDS011;6107;49.078;8.578;2022-11-20T13:35:33;4.77;;;1.57;;
12088;SDS011;6107;49.078;8.578;2022-11-20T13:40:39;3.07;;;1.10;;
12088;SDS011;6107;49.078;8.578;2022-11-20T13:45:54;3.30;;;1.27;;
12088;SDS011;6107;49.078;8.578;2022-11-20T13:48:22;2.13;;;1.20;;
12088;SDS011;6107;49.078;8.578;2022-11-20T13:59:08;4.70;;;1.43;;
12088;SDS011;6107;49.078;8.578;2022-11-20T14:01:49;3.20;;;1.00;;
12088;SDS011;6107;49.078;8.578;2022-11-20T14:04:15;2.53;;;1.43;;
12088;SDS011;6107;49.078;8.578;2022-11-20T14:06:48;4.73;;;1.67;;
12088;SDS011;6107;49.078;8.578;2022-11-20T14:09:25;3.50;;;2.80;;
12088;SDS011;6107;49.078;8.578;2022-11-20T14:11:54;2.40;;;1.17;;
12088;SDS011;6107;49.078;8.578;2022-11-20T14:14:21;2.73;;;1.30;;
12088;SDS011;6107;49.078;8.578;2022-11-20T14:16:48;2.73;;;1.40;;
12088;SDS011;6107;49.078;8.578;2022-11-20T14:21:51;1.57;;;1.10;;
12088;SDS011;6107;49.078;8.578;2022-11-20T14:24:19;1.50;;;1.17;;
12088;SDS011;6107;49.078;8.578;2022-11-20T14:26:46;3.40;;;1.20;;
12088;SDS011;6107;49.078;8.578;2022-11-20T14:29:13;2.37;;;1.33;;
12088;SDS011;6107;49.078;8.578;2022-11-20T14:31:42;2.60;;;1.57;;
12088;SDS011;6107;49.078;8.578;2022-11-20T14:34:19;3.90;;;1.87;;
12088;SDS011;6107;49.078;8.578;2022-11-20T14:36:47;2.53;;;1.20;;
12088;SDS011;6107;49.078;8.578;2022-11-20T14:39:36;6.00;;;2.00;;
12088;SDS011;6107;49.078;8.578;2022-11-20T14:42:03;3.40;;;1.70;;
12088;SDS011;6107;49.078;8.578;2022-11-20T14:45:07;3.60;;;2.07;;
12088;SDS011;6107;49.078;8.578;2022-11-20T14:47:36;3.27;;;1.30;;
12088;SDS011;6107;49.078;8.578;2022-11-20T14:50:02;2.73;;;1.70;;
12088;SDS011;6107;49.078;8.578;2022-11-20T14:52:27;3.73;;;1.70;;
12088;SDS011;6107;49.078;8.578;2022-11-20T14:54:54;2.27;;;1.53;;
12088;SDS011;6107;49.078;8.578;2022-11-20T14:57:30;4.50;;;1.30;;
12088;SDS011;6107;49.078;8.578;2022-11-20T15:00:17;1.77;;;1.10;;
12088;SDS011;6107;49.078;8.578;2022-11-20T15:02:46;4.23;;;1.33;;
12088;SDS011;6107;49.078;8.578;2022-11-20T15:05:17;2.20;;;1.17;;
12088;SDS011;6107;49.078;8.578;2022-11-20T15:07:46;3.80;;;1.40;;
12088;SDS011;6107;49.078;8.578;2022-11-20T15:10:19;2.77;;;1.40;;
12088;SDS011;6107;49.078;8.578;2022-11-20T15:12:51;2.10;;;1.20;;
12088;SDS011;6107;49.078;8.578;2022-11-20T15:15:25;2.87;;;1.30;;
12088;SDS011;6107;49.078;8.578;2022-11-20T15:18:09;1.97;;;1.17;;
12088;SDS011;6107;49.078;8.578;2022-11-20T15:20:41;2.03;;;1.20;;
12088;SDS011;6107;49.078;8.578;2022-11-20T15:23:11;3.80;;;1.50;;
12088;SDS011;6107;49.078;8.578;2022-11-20T15:25:39;3.20;;;1.30;;
12088;SDS011;6107;49.078;8.578;2022-11-20T15:28:07;4.27;;;1.37;;
12088;SDS011;6107;49.078;8.578;2022-11-20T15:30:55;4.57;;;1.57;;
12088;SDS011;6107;49.078;8.578;2022-11-20T15:33:21;2.37;;;1.57;;
12088;SDS011;6107;49.078;8.578;2022-11-20T15:35:47;4.67;;;1.50;;
12088;SDS011;6107;49.078;8.578;2022-11-20T15:38:12;2.90;;;1.57;;
12088;SDS011;6107;49.078;8.578;2022-11-20T15:40:38;5.10;;;1.50;;
12088;SDS011;6107;49.078;8.578;2022-11-20T15:43:03;3.37;;;1.00;;
12088;SDS011;6107;49.078;8.578;2022-11-20T15:45:32;2.90;;;1.20;;
12088;SDS011;6107;49.078;8.578;2022-11-20T15:48:19;9.30;;;3.83;;
12088;SDS011;6107;49.078;8.578;2022-11-20T15:53:14;3.50;;;1.57;;
12088;SDS011;6107;49.078;8.578;2022-11-20T15:55:40;3.03;;;1.80;;
12088;SDS011;6107;49.078;8.578;2022-11-20T15:58:06;4.77;;;1.73;;
12088;SDS011;6107;49.078;8.578;2022-11-20T16:00:32;3.47;;;1.93;;
12088;SDS011;6107;49.078;8.578;2022-11-20T16:02:57;4.43;;;2.23;;
12088;SDS011;6107;49.078;8.578;2022-11-20T16:05:23;9.07;;;4.03;;
12088;SDS011;6107;49.078;8.578;2022-11-20T16:07:49;5.50;;;2.10;;
12088;SDS011;6107;49.078;8.578;2022-11-20T16:10:15;3.37;;;2.17;;
12088;SDS011;6107;49.078;8.578;2022-11-20T16:12:41;7.50;;;5.43;;
12088;SDS011;6107;49.078;8.578;2022-11-20T16:15:25;5.23;;;2.60;;
12088;SDS011;6107;49.078;8.578;2022-11-20T16:18:10;2.90;;;2.20;;
12088;SDS011;6107;49.078;8.578;2022-11-20T16:20:36;3.20;;;1.60;;
12088;SDS011;6107;49.078;8.578;2022-11-20T16:23:02;3.93;;;1.67;;
12088;SDS011;6107;49.078;8.578;2022-11-20T16:25:28;4.20;;;2.00;;
12088;SDS011;6107;49.078;8.578;2022-11-20T16:27:53;3.43;;;1.70;;